createdAt,value
2018-04-24T00:01:22.776Z,69.78
2018-04-24T00:02:50.043Z,70.00
2018-04-24T00:04:17.329Z,69.32
2018-04-24T00:05:48.531Z,69.66
2018-04-24T00:07:11.905Z,70.23
2018-04-24T00:08:39.233Z,70.54
2018-04-24T00:10:10.644Z,69.76
2018-04-24T00:11:38.015Z,69.51
2018-04-24T00:13:01.535Z,69.57
2018-04-24T00:14:32.913Z,69.45
2018-04-24T00:15:56.337Z,69.73
2018-04-24T00:17:27.731Z,69.59
2018-04-24T00:18:55.154Z,69.12
2018-04-24T00:20:18.500Z,69.70
2018-04-24T00:21:45.873Z,69.56
2018-04-24T00:23:13.179Z,69.59
2018-04-24T00:24:40.401Z,69.44
2018-04-24T00:26:11.624Z,69.36
2018-04-24T00:27:34.995Z,69.10
2018-04-24T00:29:02.284Z,69.17
2018-04-24T00:30:29.544Z,69.06
2018-04-24T00:31:56.873Z,69.07
2018-04-24T00:33:24.414Z,69.71
2018-04-24T00:34:51.756Z,70.25
2018-04-24T00:36:23.230Z,69.83
2018-04-24T00:37:46.557Z,69.73
2018-04-24T00:39:17.636Z,69.68
2018-04-24T00:40:44.830Z,69.41
2018-04-24T00:42:08.247Z,69.76
2018-04-24T00:43:39.569Z,69.74
2018-04-24T00:45:03.111Z,69.48
2018-04-24T00:46:30.287Z,69.61
2018-04-24T00:48:01.512Z,70.13
2018-04-24T00:49:24.919Z,69.86
2018-04-24T00:50:56.038Z,70.18
2018-04-24T00:52:23.409Z,69.93
2018-04-24T00:53:50.629Z,69.97
2018-04-24T00:55:17.854Z,69.90
2018-04-24T00:56:40.992Z,70.13
2018-04-24T00:58:08.512Z,70.00
2018-04-24T00:59:35.686Z,70.08
2018-04-24T01:01:02.856Z,70.38
2018-04-24T01:02:30.308Z,70.35
2018-04-24T01:04:01.381Z,70.21
2018-04-24T01:05:28.647Z,70.35
2018-04-24T01:06:51.911Z,70.21
2018-04-24T01:08:23.219Z,70.62
2018-04-24T01:09:46.626Z,70.42
2018-04-24T01:11:17.741Z,70.43
2018-04-24T01:12:41.052Z,70.46
2018-04-24T01:14:08.225Z,70.40
2018-04-24T01:15:39.624Z,70.24
2018-04-24T01:17:06.471Z,70.25
2018-04-24T01:18:29.841Z,70.19
2018-04-24T01:19:57.352Z,70.44
2018-04-24T01:21:28.526Z,70.69
2018-04-24T01:22:51.777Z,70.69
2018-04-24T01:24:19.110Z,70.47
2018-04-24T01:25:50.359Z,70.52
2018-04-24T01:27:17.635Z,70.78
2018-04-24T01:28:44.776Z,70.74
2018-04-24T01:30:07.882Z,71.06
2018-04-24T01:31:39.096Z,71.03
2018-04-24T01:33:06.366Z,71.23
2018-04-24T01:34:29.809Z,71.17
2018-04-24T01:35:57.068Z,70.87
2018-04-24T01:37:28.150Z,70.82
2018-04-24T01:38:55.354Z,70.53
2018-04-24T01:40:18.851Z,70.92
2018-04-24T01:41:46.235Z,70.93
2018-04-24T01:43:13.282Z,71.18
2018-04-24T01:44:44.441Z,71.29
2018-04-24T01:46:07.835Z,71.51
2018-04-24T01:47:39.184Z,72.01
2018-04-24T01:49:06.163Z,71.91
2018-04-24T01:50:29.472Z,71.75
2018-04-24T01:51:56.936Z,71.82
2018-04-24T01:53:24.189Z,71.59
2018-04-24T01:54:51.680Z,72.27
2018-04-24T01:56:18.693Z,71.56
2018-04-24T01:57:49.723Z,71.41
2018-04-24T01:59:13.100Z,71.59
2018-04-24T02:00:40.365Z,71.67
2018-04-24T02:02:07.616Z,71.46
2018-04-24T02:03:38.808Z,71.35
2018-04-24T02:05:05.949Z,71.43
2018-04-24T02:06:29.441Z,71.40
2018-04-24T02:08:00.705Z,71.29
2018-04-24T02:09:24.035Z,71.05
2018-04-24T02:10:55.472Z,70.80
2018-04-24T02:12:22.747Z,70.49
2018-04-24T02:13:46.065Z,70.66
2018-04-24T02:15:13.544Z,70.96
2018-04-24T02:16:44.669Z,71.12
2018-04-24T02:18:07.952Z,71.32
2018-04-24T02:19:39.228Z,71.69
2018-04-24T02:21:02.604Z,71.69
2018-04-24T02:22:29.827Z,71.60
2018-04-24T02:24:00.821Z,71.44
2018-04-24T02:25:27.892Z,71.44
2018-04-24T02:26:55.135Z,71.37
2018-04-24T02:28:18.606Z,71.38
2018-04-24T02:29:46.096Z,71.20
2018-04-24T02:31:13.196Z,71.27
2018-04-24T02:32:40.339Z,71.32
2018-04-24T02:34:07.762Z,71.24
2018-04-24T02:35:35.030Z,71.19
2018-04-24T02:37:02.499Z,71.24
2018-04-24T02:38:29.469Z,71.27
2018-04-24T02:39:57.039Z,71.20
2018-04-24T02:41:28.291Z,71.27
2018-04-24T02:42:51.685Z,71.31
2018-04-24T02:44:22.929Z,71.20
2018-04-24T02:45:49.970Z,71.23
2018-04-24T02:47:17.316Z,71.12
2018-04-24T02:48:44.580Z,71.47
2018-04-24T02:50:14.753Z,71.78
2018-04-24T02:51:35.157Z,72.08
2018-04-24T02:53:06.382Z,72.01
2018-04-24T02:54:29.866Z,72.28
2018-04-24T02:56:01.143Z,72.43
2018-04-24T02:57:24.587Z,72.56
2018-04-24T02:58:55.590Z,72.36
2018-04-24T03:00:19.036Z,72.36
2018-04-24T03:01:50.473Z,72.57
2018-04-24T03:03:13.536Z,72.78
2018-04-24T03:04:44.725Z,72.42
2018-04-24T03:06:11.956Z,72.57
2018-04-24T03:07:39.250Z,72.70
2018-04-24T03:09:02.610Z,72.75
2018-04-24T03:10:30.029Z,73.03
2018-04-24T03:11:57.376Z,72.81
2018-04-24T03:13:24.718Z,72.80
2018-04-24T03:14:52.064Z,72.84
2018-04-24T03:16:23.291Z,72.52
2018-04-24T03:17:46.541Z,72.69
2018-04-24T03:19:13.827Z,72.80
2018-04-24T03:20:45.187Z,73.10
2018-04-24T03:22:12.511Z,72.90
2018-04-24T03:23:35.841Z,73.01
2018-04-24T03:25:07.139Z,73.28
2018-04-24T03:26:34.661Z,73.29
2018-04-24T03:27:57.793Z,73.27
2018-04-24T03:29:29.067Z,73.29
2018-04-24T03:30:56.464Z,73.64
2018-04-24T03:32:19.890Z,73.72
2018-04-24T03:33:51.160Z,73.90
2018-04-24T03:35:18.172Z,73.72
2018-04-24T03:36:41.408Z,73.58
2018-04-24T03:38:12.647Z,73.79
2018-04-24T03:39:40.016Z,73.63
2018-04-24T03:41:03.112Z,73.46
2018-04-24T03:42:30.625Z,73.70
2018-04-24T03:43:57.915Z,74.01
2018-04-24T03:45:25.478Z,74.10
2018-04-24T03:46:52.813Z,74.19
2018-04-24T03:48:20.190Z,74.09
2018-04-24T03:49:51.530Z,74.47
2018-04-24T03:51:18.530Z,74.32
2018-04-24T03:52:41.606Z,74.24
2018-04-24T03:54:08.773Z,74.70
2018-04-24T03:55:39.984Z,75.01
2018-04-24T03:57:07.463Z,74.83
2018-04-24T03:58:30.365Z,74.76
2018-04-24T04:00:01.516Z,75.06
2018-04-24T04:01:24.951Z,75.03
2018-04-24T04:02:52.046Z,74.78
2018-04-24T04:04:23.232Z,75.20
2018-04-24T04:05:46.525Z,75.08
2018-04-24T04:07:17.840Z,75.27
2018-04-24T04:08:40.973Z,75.44
2018-04-24T04:10:08.333Z,75.42
2018-04-24T04:11:35.886Z,75.47
2018-04-24T04:13:03.365Z,75.46
2018-04-24T04:14:30.632Z,75.43
2018-04-24T04:17:29.129Z,75.38
2018-04-24T04:18:52.531Z,75.63
2018-04-24T04:20:23.613Z,75.68
2018-04-24T04:21:46.918Z,75.99
2018-04-24T04:23:14.138Z,75.93
2018-04-24T04:24:41.121Z,75.68
2018-04-24T04:26:12.522Z,75.91
2018-04-24T04:27:39.521Z,75.53
2018-04-24T04:29:02.700Z,75.87
2018-04-24T04:30:34.156Z,75.77
2018-04-24T04:32:01.642Z,76.58
2018-04-24T04:33:25.185Z,76.69
2018-04-24T04:34:52.484Z,76.72
2018-04-24T04:36:19.794Z,76.63
2018-04-24T04:37:47.097Z,77.03
2018-04-24T04:39:18.311Z,77.00
2018-04-24T04:40:41.541Z,77.03
2018-04-24T04:42:08.737Z,76.92
2018-04-24T04:43:36.077Z,76.87
2018-04-24T04:45:07.287Z,76.45
2018-04-24T04:46:34.224Z,76.55
2018-04-24T04:47:57.462Z,76.11
2018-04-24T04:49:24.460Z,76.14
2018-04-24T04:50:55.281Z,76.35
2018-04-24T04:52:22.770Z,75.94
2018-04-24T04:53:45.915Z,76.25
2018-04-24T04:55:17.167Z,75.96
2018-04-24T04:56:40.306Z,75.96
2018-04-24T04:58:11.707Z,76.39
2018-04-24T04:59:38.957Z,76.21
2018-04-24T05:02:33.551Z,76.41
2018-04-24T05:04:00.801Z,76.28
2018-04-24T05:05:28.159Z,76.09
2018-04-24T05:06:55.612Z,76.10
2018-04-24T05:08:18.877Z,76.01
2018-04-24T05:09:50.278Z,75.90
2018-04-24T05:11:13.630Z,76.24
2018-04-24T05:12:44.848Z,76.16
2018-04-24T05:14:08.275Z,75.87
2018-04-24T05:15:34.970Z,75.82
2018-04-24T05:17:01.943Z,75.71
2018-04-24T05:18:29.069Z,75.78
2018-04-24T05:20:00.253Z,75.52
2018-04-24T05:21:26.839Z,75.51
2018-04-24T05:22:49.647Z,75.35
2018-04-24T05:24:20.712Z,75.50
2018-04-24T05:25:47.795Z,75.69
2018-04-24T05:27:11.056Z,75.63
2018-04-24T05:28:38.389Z,75.70
2018-04-24T05:30:05.650Z,75.61
2018-04-24T05:31:36.961Z,75.59
2018-04-24T05:33:04.248Z,75.46
2018-04-24T05:34:27.492Z,75.77
2018-04-24T05:35:54.713Z,75.44
2018-04-24T05:37:22.050Z,75.72
2018-04-24T05:38:53.169Z,75.77
2018-04-24T05:40:16.154Z,75.44
2018-04-24T05:41:47.292Z,75.76
2018-04-24T05:43:10.256Z,75.60
2018-04-24T05:44:37.106Z,75.69
2018-04-24T05:46:08.398Z,76.15
2018-04-24T05:47:35.853Z,76.08
2018-04-24T05:48:59.193Z,75.72
2018-04-24T05:50:30.168Z,75.65
2018-04-24T05:51:57.427Z,75.79
2018-04-24T05:53:20.845Z,75.60
2018-04-24T05:54:48.099Z,75.92
2018-04-24T05:56:19.111Z,75.71
2018-04-24T05:57:43.292Z,75.56
2018-04-24T05:59:09.654Z,75.58
2018-04-24T06:00:41.152Z,75.20
2018-04-24T06:02:08.376Z,75.32
2018-04-24T06:03:31.443Z,76.08
2018-04-24T06:04:58.689Z,75.86
2018-04-24T06:06:29.870Z,75.68
2018-04-24T06:07:57.072Z,75.68
2018-04-24T06:09:24.309Z,75.67
2018-04-24T06:10:51.524Z,75.91
2018-04-24T06:12:18.657Z,75.75
2018-04-24T06:13:41.572Z,75.12
2018-04-24T06:15:12.795Z,74.83
2018-04-24T06:16:35.965Z,74.30
2018-04-24T06:18:03.338Z,74.60
2018-04-24T06:19:30.513Z,74.26
2018-04-24T06:21:01.961Z,74.42
2018-04-24T06:22:24.944Z,74.24
2018-04-24T06:23:55.796Z,73.99
2018-04-24T06:25:19.037Z,73.97
2018-04-24T06:26:46.189Z,74.17
2018-04-24T06:28:13.483Z,74.00
2018-04-24T06:29:44.556Z,73.98
2018-04-24T06:31:07.801Z,73.03
2018-04-24T06:32:38.706Z,73.12
2018-04-24T06:34:02.057Z,73.19
2018-04-24T06:35:29.334Z,73.30
2018-04-24T06:36:56.139Z,73.19
2018-04-24T06:38:23.376Z,72.98
2018-04-24T06:39:50.447Z,72.48
2018-04-24T06:41:17.774Z,72.44
2018-04-24T06:42:44.654Z,72.87
2018-04-24T06:44:11.678Z,72.39
2018-04-24T06:45:38.564Z,72.61
2018-04-24T06:47:05.813Z,71.48
2018-04-24T06:48:33.053Z,71.85
2018-04-24T06:50:00.192Z,72.19
2018-04-24T06:51:31.245Z,72.11
2018-04-24T06:52:58.424Z,71.67
2018-04-24T06:54:21.655Z,71.70
2018-04-24T06:55:48.710Z,71.92
2018-04-24T06:57:19.932Z,72.28
2018-04-24T06:58:47.017Z,72.31
2018-04-24T07:00:13.987Z,71.84
2018-04-24T07:01:36.864Z,71.86
2018-04-24T07:03:08.034Z,72.58
2018-04-24T07:04:31.222Z,72.05
2018-04-24T07:05:58.368Z,72.14
2018-04-24T07:07:29.993Z,71.97
2018-04-24T07:08:53.235Z,72.18
2018-04-24T07:10:20.719Z,72.24
2018-04-24T07:11:51.991Z,72.06
2018-04-24T07:13:15.194Z,73.79
2018-04-24T07:14:46.377Z,72.97
2018-04-24T07:16:09.793Z,72.75
2018-04-24T07:17:41.084Z,73.84
2018-04-24T07:19:08.602Z,73.15
2018-04-24T07:20:45.472Z,72.41
2018-04-24T07:22:08.696Z,72.71
2018-04-24T07:23:40.121Z,73.48
2018-04-24T07:25:03.513Z,72.81
2018-04-24T07:26:30.955Z,72.19
2018-04-24T07:27:58.265Z,72.42
2018-04-24T07:29:29.858Z,71.64
2018-04-24T07:30:57.061Z,71.90
2018-04-24T07:32:20.480Z,72.21
2018-04-24T07:33:47.760Z,71.95
2018-04-24T07:35:18.903Z,71.76
2018-04-24T07:36:42.211Z,72.56
2018-04-24T07:38:13.483Z,72.42
2018-04-24T07:39:36.957Z,72.19
2018-04-24T07:41:04.448Z,73.03
2018-04-24T07:42:35.826Z,72.13
2018-04-24T07:43:59.056Z,71.53
2018-04-24T07:45:26.384Z,71.95
2018-04-24T07:46:53.906Z,72.53
2018-04-24T07:48:21.223Z,72.36
2018-04-24T07:49:48.679Z,72.47
2018-04-24T07:51:15.964Z,71.61
2018-04-24T07:52:47.298Z,72.06
2018-04-24T07:54:14.465Z,70.69
2018-04-24T07:55:37.721Z,72.31
2018-04-24T07:57:09.343Z,72.71
2018-04-24T07:58:36.605Z,71.48
2018-04-24T07:59:59.923Z,72.80
2018-04-24T08:01:31.144Z,71.27
2018-04-24T08:02:54.628Z,71.23
2018-04-24T08:04:21.930Z,72.43
2018-04-24T08:05:53.427Z,71.66
2018-04-24T08:07:20.812Z,71.18
2018-04-24T08:08:47.921Z,70.46
2018-04-24T08:10:11.243Z,70.70
2018-04-24T08:11:38.527Z,70.69
2018-04-24T08:13:09.890Z,71.05
2018-04-24T08:14:37.258Z,71.28
2018-04-24T08:16:00.691Z,71.53
2018-04-24T08:17:28.145Z,71.90
2018-04-24T08:18:55.490Z,71.96
2018-04-24T08:20:22.771Z,72.31
2018-04-24T08:21:54.171Z,72.46
2018-04-24T08:23:21.575Z,72.33
2018-04-24T08:24:48.679Z,72.55
2018-04-24T08:26:15.952Z,72.07
2018-04-24T08:27:43.440Z,71.95
2018-04-24T08:29:06.676Z,72.11
2018-04-24T08:30:37.995Z,72.36
2018-04-24T08:32:01.287Z,71.62
2018-04-24T08:33:32.813Z,72.30
2018-04-24T08:34:56.275Z,71.74
2018-04-24T08:36:23.772Z,71.33
2018-04-24T08:37:51.125Z,71.01
2018-04-24T08:39:22.613Z,72.77
2018-04-24T08:40:45.865Z,71.93
2018-04-24T08:42:17.290Z,71.28
2018-04-24T08:43:40.303Z,71.63
2018-04-24T08:45:07.712Z,71.56
2018-04-24T08:46:34.944Z,72.28
2018-04-24T08:48:06.567Z,72.69
2018-04-24T08:49:33.837Z,72.67
2018-04-24T08:50:57.181Z,72.14
2018-04-24T08:52:28.626Z,72.17
2018-04-24T08:53:56.076Z,72.11
2018-04-24T08:55:19.338Z,72.18
2018-04-24T08:56:46.597Z,72.95
2018-04-24T08:58:13.799Z,72.91
2018-04-24T08:59:41.037Z,72.65
2018-04-24T09:01:12.444Z,72.81
2018-04-24T09:02:35.702Z,73.36
2018-04-24T09:04:07.235Z,73.30
2018-04-24T09:05:34.466Z,73.72
2018-04-24T09:07:01.482Z,73.12
2018-04-24T09:08:25.024Z,73.43
2018-04-24T09:09:56.252Z,72.40
2018-04-24T09:11:23.481Z,73.41
2018-04-24T09:12:46.875Z,72.78
2018-04-24T09:14:14.143Z,72.65
2018-04-24T09:15:41.465Z,72.95
2018-04-24T09:17:08.603Z,73.49
2018-04-24T09:18:36.015Z,72.54
2018-04-24T09:20:03.504Z,72.97
2018-04-24T09:21:30.936Z,72.95
2018-04-24T09:22:58.049Z,73.84
2018-04-24T09:24:25.279Z,73.77
2018-04-24T09:25:56.744Z,73.19
2018-04-24T09:27:24.071Z,73.63
2018-04-24T09:28:47.226Z,73.79
2018-04-24T09:30:18.685Z,74.02
2018-04-24T09:31:41.899Z,74.33
2018-04-24T09:33:09.416Z,74.25
2018-04-24T09:34:36.858Z,75.13
2018-04-24T09:36:08.001Z,74.97
2018-04-24T09:37:31.500Z,74.90
2018-04-24T09:38:58.931Z,74.81
2018-04-24T09:40:30.301Z,75.32
2018-04-24T09:41:53.518Z,74.66
2018-04-24T09:43:24.681Z,75.02
2018-04-24T09:44:48.128Z,75.13
2018-04-24T09:46:15.430Z,75.93
2018-04-24T09:47:42.643Z,76.19
2018-04-24T09:49:13.996Z,75.75
2018-04-24T09:50:37.379Z,75.61
2018-04-24T09:52:04.696Z,75.67
2018-04-24T09:53:32.093Z,74.86
2018-04-24T09:55:03.742Z,75.13
2018-04-24T09:56:31.087Z,75.55
2018-04-24T09:57:58.525Z,75.13
2018-04-24T09:59:21.710Z,75.42
2018-04-24T10:00:48.938Z,75.04
2018-04-24T10:02:20.416Z,75.41
2018-04-24T10:03:47.624Z,75.53
2018-04-24T10:05:10.846Z,75.17
2018-04-24T10:06:38.343Z,75.21
2018-04-24T10:08:05.681Z,74.74
2018-04-24T10:09:33.036Z,74.79
2018-04-24T10:11:04.369Z,74.57
2018-04-24T10:12:31.613Z,74.12
2018-04-24T10:13:55.168Z,74.85
2018-04-24T10:15:26.590Z,74.80
2018-04-24T10:16:49.953Z,74.58
2018-04-24T10:18:21.232Z,75.07
2018-04-24T10:19:48.754Z,74.63
2018-04-24T10:21:15.919Z,74.66
2018-04-24T10:22:39.385Z,74.27
2018-04-24T10:24:10.737Z,74.40
2018-04-24T10:25:38.172Z,74.53
2018-04-24T10:27:01.420Z,74.67
2018-04-24T10:28:32.765Z,73.77
2018-04-24T10:29:56.287Z,73.35
2018-04-24T10:31:23.690Z,74.30
2018-04-24T10:32:54.965Z,75.56
2018-04-24T10:34:22.437Z,76.00
2018-04-24T10:35:49.872Z,75.90
2018-04-24T10:37:13.385Z,75.77
2018-04-24T10:38:40.752Z,75.69
2018-04-24T10:40:08.136Z,75.41
2018-04-24T10:41:39.533Z,74.64
2018-04-24T10:43:07.119Z,75.18
2018-04-24T10:44:30.484Z,75.28
2018-04-24T10:45:57.771Z,75.24
2018-04-24T10:47:25.242Z,74.63
2018-04-24T10:48:52.512Z,74.99
2018-04-24T10:50:23.798Z,75.13
2018-04-24T10:51:47.145Z,75.01
2018-04-24T10:53:14.427Z,76.40
2018-04-24T10:54:45.539Z,76.02
2018-04-24T10:56:08.664Z,77.05
2018-04-24T10:57:40.134Z,77.03
2018-04-24T10:59:03.545Z,76.37
2018-04-24T11:00:34.944Z,76.32
2018-04-24T11:01:58.283Z,76.68
2018-04-24T11:03:25.439Z,77.28
2018-04-24T11:04:52.935Z,76.74
2018-04-24T11:06:20.472Z,76.07
2018-04-24T11:07:51.858Z,75.62
2018-04-24T11:09:19.136Z,75.49
2018-04-24T11:10:46.244Z,73.93
2018-04-24T11:12:09.716Z,75.38
2018-04-24T11:13:41.094Z,75.07
2018-04-24T11:15:08.641Z,74.07
2018-04-24T11:16:36.073Z,74.08
2018-04-24T11:17:59.585Z,74.51
2018-04-24T11:19:30.835Z,74.67
2018-04-24T11:20:58.344Z,75.79
2018-04-24T11:22:21.759Z,75.74
2018-04-24T11:23:49.083Z,75.19
2018-04-24T11:25:16.433Z,76.06
2018-04-24T11:26:47.878Z,75.12
2018-04-24T11:28:15.043Z,75.17
2018-04-24T11:29:38.312Z,74.50
2018-04-24T11:31:05.764Z,75.42
2018-04-24T11:32:37.140Z,75.19
2018-04-24T11:34:00.599Z,76.11
2018-04-24T11:35:28.092Z,75.86
2018-04-24T11:36:55.592Z,75.96
2018-04-24T11:38:22.973Z,75.87
2018-04-24T11:39:54.303Z,75.21
2018-04-24T11:41:17.615Z,76.71
2018-04-24T11:42:44.986Z,76.20
2018-04-24T11:44:12.277Z,76.02
2018-04-24T11:45:39.309Z,75.94
2018-04-24T11:47:06.645Z,76.49
2018-04-24T11:48:34.306Z,76.46
2018-04-24T11:50:01.696Z,76.01
2018-04-24T11:51:32.813Z,75.91
2018-04-24T11:52:56.208Z,75.28
2018-04-24T11:54:23.596Z,75.49
2018-04-24T11:55:50.881Z,75.62
2018-04-24T11:57:18.381Z,76.03
2018-04-24T11:58:45.693Z,76.08
2018-04-24T12:00:12.964Z,75.64
2018-04-24T12:01:44.385Z,76.40
2018-04-24T12:03:07.939Z,77.16
2018-04-24T12:04:35.266Z,77.19
2018-04-24T12:06:06.730Z,77.21
2018-04-24T12:07:30.257Z,78.67
2018-04-24T12:09:01.635Z,78.31
2018-04-24T12:10:28.802Z,78.15
2018-04-24T12:11:56.169Z,78.96
2018-04-24T12:13:19.536Z,78.28
2018-04-24T12:14:46.951Z,79.54
2018-04-24T12:16:18.352Z,79.69
2018-04-24T12:17:41.669Z,79.74
2018-04-24T12:19:08.955Z,80.47
2018-04-24T12:20:40.248Z,80.22
2018-04-24T12:22:07.713Z,80.10
2018-04-24T12:23:35.020Z,79.75
2018-04-24T12:24:58.372Z,79.47
2018-04-24T12:26:25.768Z,79.45
2018-04-24T12:27:56.781Z,79.47
2018-04-24T12:29:24.067Z,81.02
2018-04-24T12:30:47.485Z,81.21
2018-04-24T12:32:18.955Z,81.06
2018-04-24T12:33:42.348Z,81.12
2018-04-24T12:35:13.777Z,81.56
2018-04-24T12:36:41.219Z,81.63
2018-04-24T12:38:04.661Z,80.96
2018-04-24T12:39:32.010Z,80.58
2018-04-24T12:41:03.350Z,79.93
2018-04-24T12:42:26.664Z,80.43
2018-04-24T12:43:54.121Z,79.94
2018-04-24T12:45:25.375Z,81.53
2018-04-24T12:46:48.791Z,80.83
2018-04-24T12:48:16.039Z,80.95
2018-04-24T12:49:43.262Z,80.77
2018-04-24T12:51:10.311Z,80.24
2018-04-24T12:52:37.651Z,80.67
2018-04-24T12:54:04.959Z,80.35
2018-04-24T12:55:36.183Z,80.06
2018-04-24T12:56:59.582Z,81.20
2018-04-24T12:58:30.900Z,80.87
2018-04-24T12:59:58.256Z,81.44
2018-04-24T13:01:21.371Z,80.37
2018-04-24T13:02:48.741Z,80.22
2018-04-24T13:04:16.053Z,80.83
2018-04-24T13:05:47.525Z,81.29
2018-04-24T13:07:14.723Z,81.48
2018-04-24T13:08:41.961Z,82.45
2018-04-24T13:10:05.226Z,82.52
2018-04-24T13:11:32.388Z,82.92
2018-04-24T13:12:59.677Z,83.78
2018-04-24T13:14:31.103Z,83.52
2018-04-24T13:15:58.541Z,83.71
2018-04-24T13:17:21.988Z,85.52
2018-04-24T13:18:53.162Z,86.76
2018-04-24T13:20:20.455Z,86.60
2018-04-24T13:21:47.778Z,86.41
2018-04-24T13:23:11.168Z,87.61
2018-04-24T13:24:42.395Z,87.45
2018-04-24T13:26:09.622Z,88.59
2018-04-24T13:27:38.131Z,88.54
2018-04-24T13:29:00.069Z,89.25
2018-04-24T13:30:31.274Z,88.61
2018-04-24T13:31:54.580Z,89.25
2018-04-24T13:33:25.877Z,88.69
2018-04-24T13:34:53.110Z,88.19
2018-04-24T13:36:20.596Z,87.81
2018-04-24T13:37:43.829Z,87.28
2018-04-24T13:39:15.115Z,86.83
2018-04-24T13:40:42.494Z,86.78
2018-04-24T13:42:05.745Z,86.10
2018-04-24T13:43:33.023Z,87.04
2018-04-24T13:45:04.438Z,86.49
2018-04-24T13:46:28.051Z,87.24
2018-04-24T13:47:55.175Z,86.53
2018-04-24T13:49:22.152Z,87.11
2018-04-24T13:50:53.262Z,87.42
2018-04-24T13:52:16.671Z,87.32
2018-04-24T13:53:47.921Z,86.98
2018-04-24T13:55:15.100Z,87.14
2018-04-24T13:56:42.661Z,86.42
2018-04-24T13:58:05.900Z,87.26
2018-04-24T13:59:33.323Z,87.13
2018-04-24T14:01:04.685Z,85.97
2018-04-24T14:02:27.871Z,85.56
2018-04-24T14:03:59.244Z,85.42
2018-04-24T14:05:22.690Z,84.53
2018-04-24T14:06:54.013Z,83.51
2018-04-24T14:08:17.238Z,83.56
2018-04-24T14:09:48.643Z,84.15
2018-04-24T14:11:15.659Z,84.26
2018-04-24T14:12:39.051Z,84.02
2018-04-24T14:14:10.369Z,83.75
2018-04-24T14:15:37.816Z,84.04
2018-04-24T14:17:05.270Z,83.72
2018-04-24T14:18:28.610Z,83.18
2018-04-24T14:19:55.983Z,82.72
2018-04-24T14:21:27.398Z,82.04
2018-04-24T14:22:50.543Z,82.59
2018-04-24T14:24:17.923Z,82.37
2018-04-24T14:25:45.417Z,81.90
2018-04-24T14:27:12.696Z,81.91
2018-04-24T14:28:44.152Z,82.14
2018-04-24T14:30:11.324Z,82.47
2018-04-24T14:31:38.667Z,81.61
2018-04-24T14:33:05.927Z,82.42
2018-04-24T14:34:29.391Z,81.35
2018-04-24T14:36:00.814Z,81.13
2018-04-24T14:37:24.251Z,80.97
2018-04-24T14:38:51.714Z,80.39
2018-04-24T14:40:23.040Z,80.94
2018-04-24T14:41:50.400Z,80.78
2018-04-24T14:43:17.679Z,80.24
2018-04-24T14:44:40.880Z,80.48
2018-04-24T14:46:12.223Z,79.89
2018-04-24T14:47:35.548Z,79.31
2018-04-24T14:49:07.142Z,78.73
2018-04-24T14:50:35.459Z,79.52
2018-04-24T14:51:57.696Z,78.96
2018-04-24T14:53:25.020Z,78.64
2018-04-24T14:54:52.315Z,79.02
2018-04-24T14:56:23.676Z,78.95
2018-04-24T14:57:46.963Z,78.67
2018-04-24T14:59:18.317Z,79.46
2018-04-24T15:00:45.535Z,78.55
2018-04-24T15:02:12.841Z,78.79
2018-04-24T15:03:36.373Z,78.85
2018-04-24T15:05:07.589Z,78.24
2018-04-24T15:06:35.090Z,78.97
2018-04-24T15:07:58.322Z,79.00
2018-04-24T15:09:25.730Z,77.95
2018-04-24T15:10:53.039Z,78.03
2018-04-24T15:12:20.530Z,78.01
2018-04-24T15:13:51.948Z,77.55
2018-04-24T15:15:15.283Z,76.75
2018-04-24T15:16:42.490Z,77.09
2018-04-24T15:18:09.809Z,77.21
2018-04-24T15:19:41.097Z,77.25
2018-04-24T15:21:04.544Z,76.62
2018-04-24T15:22:31.862Z,76.27
2018-04-24T15:23:59.158Z,76.92
2018-04-24T15:25:26.546Z,77.05
2018-04-24T15:26:57.847Z,76.71
2018-04-24T15:28:25.297Z,77.21
2018-04-24T15:29:48.588Z,77.56
2018-04-24T15:31:15.976Z,76.50
2018-04-24T15:32:47.214Z,75.94
2018-04-24T15:34:14.473Z,76.75
2018-04-24T15:35:37.954Z,76.62
2018-04-24T15:37:05.498Z,76.23
2018-04-24T15:38:32.935Z,76.33
2018-04-24T15:40:04.401Z,76.81
2018-04-24T15:41:27.789Z,76.79
2018-04-24T15:42:59.123Z,77.00
2018-04-24T15:44:22.616Z,76.39
2018-04-24T15:45:53.968Z,76.90
2018-04-24T15:47:17.404Z,75.45
2018-04-24T15:48:48.863Z,75.51
2018-04-24T15:50:16.095Z,75.80
2018-04-24T15:51:43.564Z,75.35
2018-04-24T15:53:07.080Z,76.07
2018-04-24T15:54:34.408Z,76.42
2018-04-24T15:56:05.816Z,75.58
2018-04-24T15:57:29.290Z,75.56
2018-04-24T15:59:00.698Z,76.46
2018-04-24T16:00:24.144Z,76.44
2018-04-24T16:01:51.324Z,76.92
2018-04-24T16:03:18.686Z,76.58
2018-04-24T16:04:49.761Z,76.18
2018-04-24T16:06:13.174Z,75.64
2018-04-24T16:07:44.124Z,75.60
2018-04-24T16:09:07.579Z,75.46
2018-04-24T16:10:35.033Z,75.19
2018-04-24T16:12:02.459Z,74.79
2018-04-24T16:13:33.881Z,75.24
2018-04-24T16:15:01.281Z,75.25
2018-04-24T16:16:24.478Z,75.82
2018-04-24T16:17:55.783Z,75.46
2018-04-24T16:19:19.115Z,75.71
2018-04-24T16:20:46.512Z,74.87
2018-04-24T16:22:17.897Z,74.78
2018-04-24T16:23:41.098Z,75.33
2018-04-24T16:25:12.472Z,74.98
2018-04-24T16:26:39.740Z,75.07
2018-04-24T16:28:03.140Z,74.83
2018-04-24T16:29:30.507Z,74.43
2018-04-24T16:30:57.796Z,74.52
2018-04-24T16:32:25.289Z,75.14
2018-04-24T16:33:56.774Z,74.55
2018-04-24T16:35:19.996Z,74.54
2018-04-24T16:36:47.368Z,74.63
2018-04-24T16:38:14.577Z,74.32
2018-04-24T16:39:45.771Z,74.55
2018-04-24T16:41:13.085Z,74.62
2018-04-24T16:42:36.438Z,74.28
2018-04-24T16:44:03.815Z,74.11
2018-04-24T16:45:35.208Z,74.86
2018-04-24T16:46:58.603Z,74.34
2018-04-24T16:48:29.981Z,74.00
2018-04-24T16:49:57.374Z,75.08
2018-04-24T16:51:20.799Z,74.16
2018-04-24T16:52:52.248Z,74.45
2018-04-24T16:54:15.817Z,73.56
2018-04-24T16:55:47.098Z,74.22
2018-04-24T16:57:10.336Z,74.08
2018-04-24T16:58:41.722Z,74.14
2018-04-24T17:00:05.068Z,74.43
2018-04-24T17:01:32.374Z,74.48
2018-04-24T17:03:03.797Z,74.22
2018-04-24T17:04:27.202Z,73.93
2018-04-24T17:05:54.596Z,74.26
2018-04-24T17:07:25.942Z,74.70
2018-04-24T17:08:49.347Z,74.64
2018-04-24T17:10:20.668Z,75.01
2018-04-24T17:11:44.087Z,74.92
2018-04-24T17:13:15.020Z,74.94
2018-04-24T17:14:38.604Z,75.34
2018-04-24T17:16:05.976Z,76.03
2018-04-24T17:17:33.543Z,76.66
2018-04-24T17:19:00.969Z,76.89
2018-04-24T17:20:32.290Z,76.42
2018-04-24T17:21:55.570Z,76.18
2018-04-24T17:23:22.975Z,75.89
2018-04-24T17:24:50.409Z,75.84
2018-04-24T17:26:17.912Z,75.40
2018-04-24T17:27:45.262Z,76.53
2018-04-24T17:29:12.576Z,76.04
2018-04-24T17:30:39.843Z,75.71
2018-04-24T17:32:07.168Z,75.30
2018-04-24T17:33:34.458Z,75.34
2018-04-24T17:35:05.688Z,75.22
2018-04-24T17:36:29.242Z,75.41
2018-04-24T17:37:56.609Z,75.79
2018-04-24T17:39:27.959Z,76.00
2018-04-24T17:40:51.368Z,75.44
2018-04-24T17:42:18.556Z,75.51
2018-04-24T17:43:49.884Z,76.52
2018-04-24T17:45:17.262Z,76.14
2018-04-24T17:46:40.489Z,75.65
2018-04-24T17:48:12.103Z,75.80
2018-04-24T17:49:39.339Z,75.93
2018-04-24T17:51:02.626Z,76.06
2018-04-24T17:52:30.015Z,76.11
2018-04-24T17:53:57.548Z,76.30
2018-04-24T17:55:24.975Z,76.23
2018-04-24T17:56:52.271Z,76.55
2018-04-24T17:58:23.707Z,76.73
2018-04-24T17:59:51.231Z,76.89
2018-04-24T18:01:14.404Z,77.13
2018-04-24T18:02:45.555Z,77.51
2018-04-24T18:04:12.923Z,77.25
2018-04-24T18:05:36.514Z,77.55
2018-04-24T18:07:07.793Z,77.72
2018-04-24T18:08:34.976Z,77.71
2018-04-24T18:09:58.477Z,77.90
2018-04-24T18:11:25.754Z,77.95
2018-04-24T18:12:56.834Z,78.11
2018-04-24T18:14:24.256Z,78.23
2018-04-24T18:15:47.680Z,78.23
2018-04-24T18:17:19.052Z,78.48
2018-04-24T18:18:42.401Z,78.49
2018-04-24T18:20:13.765Z,78.72
2018-04-24T18:21:37.215Z,78.60
2018-04-24T18:23:04.661Z,78.75
2018-04-24T18:24:32.062Z,78.79
2018-04-24T18:25:59.655Z,78.94
2018-04-24T18:27:26.933Z,79.31
2018-04-24T18:28:54.318Z,79.34
2018-04-24T18:30:21.815Z,79.43
2018-04-24T18:31:49.166Z,79.67
2018-04-24T18:33:16.602Z,79.69
2018-04-24T18:34:49.018Z,79.89
2018-04-24T18:36:15.246Z,80.00
2018-04-24T18:37:38.658Z,80.07
2018-04-24T18:39:09.919Z,80.06
2018-04-24T18:40:37.315Z,80.33
2018-04-24T18:42:04.733Z,80.39
2018-04-24T18:43:27.999Z,80.40
2018-04-24T18:44:59.294Z,80.57
2018-04-24T18:46:22.759Z,80.68
2018-04-24T18:47:54.248Z,80.89